createdAt,value
2022-10-25T00:01:07.088Z,23.74
2022-10-25T00:03:11.603Z,23.75
2022-10-25T00:05:15.950Z,23.75
2022-10-25T00:07:20.356Z,23.75
2022-10-25T00:09:24.730Z,23.75
2022-10-25T00:11:29.145Z,23.74
2022-10-25T00:13:33.481Z,23.74
2022-10-25T00:15:37.841Z,23.74
2022-10-25T00:17:42.188Z,23.73
2022-10-25T00:19:47.262Z,23.74
2022-10-25T00:21:51.581Z,23.74
2022-10-25T00:23:55.942Z,23.75
2022-10-25T00:26:00.387Z,23.74
2022-10-25T00:28:04.730Z,23.75
2022-10-25T00:30:09.074Z,23.75
2022-10-25T00:32:13.462Z,23.74
2022-10-25T00:34:17.886Z,23.74
2022-10-25T00:36:22.263Z,23.74
2022-10-25T00:38:26.597Z,23.73
2022-10-25T00:40:30.923Z,23.73
2022-10-25T00:42:35.340Z,23.72
2022-10-25T00:44:39.734Z,23.71
2022-10-25T00:46:44.144Z,23.71
2022-10-25T00:48:48.526Z,23.71
2022-10-25T00:50:52.874Z,23.7
2022-10-25T00:52:59.177Z,23.69
2022-10-25T00:55:03.513Z,23.68
2022-10-25T00:57:07.890Z,23.67
2022-10-25T00:59:12.256Z,23.67
2022-10-25T01:01:16.702Z,23.65
2022-10-25T01:03:21.548Z,23.64
2022-10-25T01:05:25.922Z,23.64
2022-10-25T01:07:30.256Z,23.63
2022-10-25T01:09:34.609Z,23.62
2022-10-25T01:11:38.954Z,23.61
2022-10-25T01:13:43.309Z,23.6
2022-10-25T01:15:47.764Z,23.6
2022-10-25T01:17:52.219Z,23.59
2022-10-25T01:19:56.585Z,23.59
2022-10-25T01:22:00.931Z,23.58
2022-10-25T01:24:05.353Z,23.58
2022-10-25T01:26:09.708Z,23.58
2022-10-25T01:28:14.030Z,23.56
2022-10-25T01:30:18.441Z,23.55
2022-10-25T01:32:22.756Z,23.54
2022-10-25T01:34:27.071Z,23.53
2022-10-25T01:36:31.437Z,23.53
2022-10-25T01:38:35.749Z,23.53
2022-10-25T01:40:40.143Z,23.52
2022-10-25T01:42:44.511Z,23.53
2022-10-25T01:44:48.833Z,23.52
2022-10-25T01:46:53.180Z,23.53
2022-10-25T01:48:57.523Z,23.53
2022-10-25T01:51:01.853Z,23.52
2022-10-25T01:53:06.221Z,23.5
2022-10-25T01:55:10.573Z,23.49
2022-10-25T01:57:14.915Z,23.48
2022-10-25T01:59:19.281Z,23.46
2022-10-25T02:01:23.776Z,23.45
2022-10-25T02:03:28.919Z,23.43
2022-10-25T02:05:33.228Z,23.42
2022-10-25T02:07:37.536Z,23.41
2022-10-25T02:09:41.926Z,23.4
2022-10-25T02:11:46.267Z,23.4
2022-10-25T02:13:50.628Z,23.38
2022-10-25T02:15:54.975Z,23.38
2022-10-25T02:17:59.330Z,23.37
2022-10-25T02:20:03.695Z,23.36
2022-10-25T02:22:08.021Z,23.36
2022-10-25T02:24:12.551Z,23.35
2022-10-25T02:26:17.001Z,23.34
2022-10-25T02:28:21.352Z,23.33
2022-10-25T02:30:25.709Z,23.32
2022-10-25T02:32:30.030Z,23.31
2022-10-25T02:34:34.418Z,23.31
2022-10-25T02:36:38.784Z,23.31
2022-10-25T02:38:43.103Z,23.3
2022-10-25T02:40:47.441Z,23.3
2022-10-25T02:42:51.840Z,23.29
2022-10-25T02:44:56.198Z,23.28
2022-10-25T02:47:00.536Z,23.28
2022-10-25T02:49:04.848Z,23.26
2022-10-25T02:51:09.285Z,23.26
2022-10-25T02:53:13.624Z,23.26
2022-10-25T02:55:18.019Z,23.26
2022-10-25T02:57:22.349Z,23.26
2022-10-25T02:59:26.704Z,23.26
2022-10-25T03:01:31.174Z,23.26
2022-10-25T03:03:36.171Z,23.25
2022-10-25T03:05:40.580Z,23.24
2022-10-25T03:07:44.931Z,23.25
2022-10-25T03:09:49.308Z,23.24
2022-10-25T03:11:53.653Z,23.24
2022-10-25T03:13:57.979Z,23.22
2022-10-25T03:16:02.352Z,23.22
2022-10-25T03:18:06.663Z,23.21
2022-10-25T03:20:11.033Z,23.2
2022-10-25T03:22:15.365Z,23.19
2022-10-25T03:24:19.768Z,23.18
2022-10-25T03:26:24.163Z,23.18
2022-10-25T03:28:28.480Z,23.18
2022-10-25T03:30:32.842Z,23.18
2022-10-25T03:32:37.234Z,23.18
2022-10-25T03:34:43.457Z,23.19
2022-10-25T03:36:47.850Z,23.2
2022-10-25T03:38:52.200Z,23.2
2022-10-25T03:40:56.692Z,23.2
2022-10-25T03:43:01.066Z,23.2
2022-10-25T03:45:05.500Z,23.19
2022-10-25T03:47:09.870Z,23.2
2022-10-25T03:49:14.204Z,23.19
2022-10-25T03:51:18.580Z,23.19
2022-10-25T03:53:22.966Z,23.19
2022-10-25T03:55:27.305Z,23.19
2022-10-25T03:57:31.674Z,23.19
2022-10-25T03:59:36.040Z,23.18
2022-10-25T04:01:40.480Z,23.18
2022-10-25T04:03:45.308Z,23.17
2022-10-25T04:05:49.644Z,23.17
2022-10-25T04:07:53.997Z,23.17
2022-10-25T04:09:58.355Z,23.17
2022-10-25T04:12:03.802Z,23.15
2022-10-25T04:14:08.133Z,23.15
2022-10-25T04:16:14.696Z,23.14
2022-10-25T04:18:22.633Z,23.13
2022-10-25T04:20:26.961Z,23.12
2022-10-25T04:22:31.376Z,23.12
2022-10-25T04:24:35.871Z,23.11
2022-10-25T04:26:40.261Z,23.11
2022-10-25T04:28:44.626Z,23.1
2022-10-25T04:30:48.939Z,23.1
2022-10-25T04:32:53.348Z,23.09
2022-10-25T04:34:57.680Z,23.09
2022-10-25T04:37:02.034Z,23.09
2022-10-25T04:39:06.462Z,23.08
2022-10-25T04:41:10.803Z,23.08
2022-10-25T04:43:15.208Z,23.08
2022-10-25T04:45:19.589Z,23.08
2022-10-25T04:47:23.938Z,23.07
2022-10-25T04:49:28.332Z,23.07
2022-10-25T04:51:32.668Z,23.07
2022-10-25T04:53:37.051Z,23.07
2022-10-25T04:55:41.384Z,23.07
2022-10-25T04:57:45.732Z,23.07
2022-10-25T04:59:50.098Z,23.07
2022-10-25T05:01:54.426Z,23.07
2022-10-25T05:03:58.806Z,23.08
2022-10-25T05:06:03.149Z,23.07
2022-10-25T05:08:07.518Z,23.07
2022-10-25T05:10:11.887Z,23.07
2022-10-25T05:12:16.259Z,23.06
2022-10-25T05:14:20.600Z,23.06
2022-10-25T05:16:24.973Z,23.06
2022-10-25T05:18:29.339Z,23.07
2022-10-25T05:20:33.739Z,23.07
2022-10-25T05:22:38.067Z,23.07
2022-10-25T05:24:42.446Z,23.09
2022-10-25T05:26:46.858Z,23.14
2022-10-25T05:28:51.435Z,23.19
2022-10-25T05:30:55.851Z,23.23
2022-10-25T05:33:01.467Z,23.28
2022-10-25T05:35:08.472Z,23.33
2022-10-25T05:37:12.818Z,23.37
2022-10-25T05:39:17.215Z,23.43
2022-10-25T05:41:21.547Z,23.47
2022-10-25T05:43:25.868Z,23.51
2022-10-25T05:45:30.245Z,23.55
2022-10-25T05:47:34.602Z,23.59
2022-10-25T05:49:38.963Z,23.61
2022-10-25T05:51:43.333Z,23.65
2022-10-25T05:53:47.688Z,23.65
2022-10-25T05:55:52.103Z,23.67
2022-10-25T05:57:56.462Z,23.69
2022-10-25T06:00:00.838Z,23.7
2022-10-25T06:02:05.329Z,23.7
2022-10-25T06:04:09.999Z,23.71
2022-10-25T06:06:14.330Z,23.72
2022-10-25T06:08:18.683Z,23.72
2022-10-25T06:10:23.073Z,23.7
2022-10-25T06:12:27.472Z,23.67
2022-10-25T06:14:31.769Z,23.64
2022-10-25T06:16:36.278Z,23.6
2022-10-25T06:18:40.744Z,23.61
2022-10-25T06:20:45.138Z,23.63
2022-10-25T06:22:49.765Z,23.66
2022-10-25T06:24:54.310Z,23.68
2022-10-25T06:26:58.680Z,23.7
2022-10-25T06:29:03.024Z,23.73
2022-10-25T06:31:07.399Z,23.74
2022-10-25T06:33:11.722Z,23.76
2022-10-25T06:35:16.106Z,23.78
2022-10-25T06:37:20.467Z,23.8
2022-10-25T06:39:24.832Z,23.81
2022-10-25T06:41:29.244Z,23.82
2022-10-25T06:43:33.588Z,23.82
2022-10-25T06:45:38.007Z,23.82
2022-10-25T06:47:42.395Z,23.83
2022-10-25T06:49:46.722Z,23.82
2022-10-25T06:51:51.047Z,23.83
2022-10-25T06:53:55.359Z,23.85
2022-10-25T06:56:03.377Z,23.87
2022-10-25T06:58:14.355Z,23.89
2022-10-25T07:00:18.645Z,23.91
2022-10-25T07:02:23.130Z,23.93
2022-10-25T07:04:28.302Z,23.93
2022-10-25T07:08:37.325Z,23.92
2022-10-25T07:10:41.716Z,23.93
2022-10-25T07:12:46.177Z,23.92
2022-10-25T07:14:50.640Z,23.92
2022-10-25T07:16:55.202Z,23.92
2022-10-25T07:19:00.040Z,23.92
2022-10-25T07:21:04.413Z,23.92
2022-10-25T07:23:08.946Z,23.91
2022-10-25T07:25:13.380Z,23.91
2022-10-25T07:27:17.758Z,23.91
2022-10-25T07:29:22.094Z,23.9
2022-10-25T07:31:26.435Z,23.9
2022-10-25T07:33:30.861Z,23.9
2022-10-25T07:35:38.440Z,23.89
2022-10-25T07:38:14.050Z,23.9
2022-10-25T07:40:18.484Z,23.91
2022-10-25T07:42:22.879Z,23.9
2022-10-25T07:44:27.237Z,23.91
2022-10-25T07:46:31.576Z,23.91
2022-10-25T07:48:35.948Z,23.9
2022-10-25T07:50:40.292Z,23.9
2022-10-25T07:52:44.652Z,23.89
2022-10-25T07:54:49.011Z,23.89
2022-10-25T07:56:53.380Z,23.89
2022-10-25T07:58:57.774Z,23.89
2022-10-25T08:01:02.234Z,23.89
2022-10-25T08:03:07.029Z,23.88
2022-10-25T08:05:11.688Z,23.88
2022-10-25T08:07:16.062Z,23.88
2022-10-25T08:09:37.171Z,23.88
2022-10-25T08:11:42.436Z,23.88
2022-10-25T08:13:46.852Z,23.89
2022-10-25T08:15:53.305Z,23.88
2022-10-25T08:17:57.753Z,23.89
2022-10-25T08:20:02.876Z,23.89
2022-10-25T08:22:07.525Z,23.91
2022-10-25T08:24:12.129Z,23.91
2022-10-25T08:26:16.983Z,23.92
2022-10-25T08:28:21.411Z,23.93
2022-10-25T08:30:25.829Z,23.94
2022-10-25T08:32:30.167Z,23.94
2022-10-25T08:34:34.737Z,23.95
2022-10-25T08:36:39.081Z,23.95
2022-10-25T08:38:43.465Z,23.94
2022-10-25T08:40:47.815Z,23.94
2022-10-25T08:42:52.174Z,23.94
2022-10-25T08:44:56.612Z,23.94
2022-10-25T08:47:00.956Z,23.94
2022-10-25T08:49:05.361Z,23.94
2022-10-25T08:51:09.730Z,23.94
2022-10-25T08:53:14.066Z,23.95
2022-10-25T08:55:18.439Z,23.95
2022-10-25T08:57:22.773Z,23.95
2022-10-25T08:59:27.176Z,23.96
2022-10-25T09:01:31.659Z,23.96
2022-10-25T09:03:36.573Z,23.98
2022-10-25T09:05:41.069Z,23.98
2022-10-25T09:07:46.228Z,23.99
2022-10-25T09:09:51.605Z,24.01
2022-10-25T09:11:55.988Z,24.01
2022-10-25T09:14:00.345Z,24.01
2022-10-25T09:16:04.704Z,24.02
2022-10-25T09:18:09.045Z,24.02
2022-10-25T09:20:13.408Z,24.03
2022-10-25T09:22:17.793Z,24.04
2022-10-25T09:24:22.125Z,24.05
2022-10-25T09:26:26.506Z,24.05
2022-10-25T09:28:30.867Z,24.05
2022-10-25T09:30:35.220Z,24.06
2022-10-25T09:32:39.717Z,24.06
2022-10-25T09:34:44.230Z,24.07
2022-10-25T09:36:48.713Z,24.07
2022-10-25T09:38:53.081Z,24.08
2022-10-25T09:40:57.453Z,24.09
2022-10-25T09:43:01.891Z,24.11
2022-10-25T09:45:06.397Z,24.12
2022-10-25T09:47:10.890Z,24.14
2022-10-25T09:49:15.943Z,24.15
2022-10-25T09:51:20.315Z,24.16
2022-10-25T09:53:24.664Z,24.17
2022-10-25T09:55:29.025Z,24.18
2022-10-25T09:57:33.387Z,24.19
2022-10-25T09:59:37.799Z,24.2
2022-10-25T10:01:42.298Z,24.21
2022-10-25T10:03:50.110Z,24.22
2022-10-25T10:06:01.799Z,24.23
2022-10-25T10:08:06.177Z,24.23
2022-10-25T10:10:10.543Z,24.24
2022-10-25T10:12:14.932Z,24.25
2022-10-25T10:14:19.332Z,24.25
2022-10-25T10:16:23.671Z,24.25
2022-10-25T10:18:28.049Z,24.26
2022-10-25T10:20:32.382Z,24.27
2022-10-25T10:22:36.827Z,24.28
2022-10-25T10:24:41.317Z,24.29
2022-10-25T10:26:45.650Z,24.29
2022-10-25T10:28:50.024Z,24.3
2022-10-25T10:30:54.351Z,24.31
2022-10-25T10:32:58.709Z,24.32
2022-10-25T10:35:03.077Z,24.33
2022-10-25T10:37:07.446Z,24.34
2022-10-25T10:39:11.768Z,24.35
2022-10-25T10:41:16.134Z,24.36
2022-10-25T10:43:20.490Z,24.37
2022-10-25T10:45:24.889Z,24.39
2022-10-25T10:47:29.252Z,24.41
2022-10-25T10:49:33.643Z,24.42
2022-10-25T10:51:43.847Z,24.43
2022-10-25T10:53:49.154Z,24.45
2022-10-25T10:55:53.534Z,24.47
2022-10-25T10:57:57.872Z,24.48
2022-10-25T11:00:02.250Z,24.49
2022-10-25T11:02:07.030Z,24.51
2022-10-25T11:04:12.585Z,24.52
2022-10-25T11:06:17.371Z,24.54
2022-10-25T11:08:21.727Z,24.57
2022-10-25T11:10:26.071Z,24.59
2022-10-25T11:12:30.425Z,24.6
2022-10-25T11:14:34.758Z,24.62
2022-10-25T11:16:39.141Z,24.64
2022-10-25T11:18:43.507Z,24.66
2022-10-25T11:20:47.838Z,24.68
2022-10-25T11:22:52.215Z,24.71
2022-10-25T11:24:56.566Z,24.72
2022-10-25T11:27:01.247Z,24.75
2022-10-25T11:29:05.605Z,24.77
2022-10-25T11:31:09.971Z,24.79
2022-10-25T11:33:14.328Z,24.79
2022-10-25T11:35:18.687Z,24.8
2022-10-25T11:37:23.068Z,24.83
2022-10-25T11:39:27.496Z,24.84
2022-10-25T11:41:31.844Z,24.85
2022-10-25T11:43:36.259Z,24.85
2022-10-25T11:45:40.630Z,24.85
2022-10-25T11:47:44.987Z,24.84
2022-10-25T11:49:51.483Z,24.85
2022-10-25T11:52:00.563Z,24.88
2022-10-25T11:54:05.157Z,24.9
2022-10-25T11:56:09.536Z,24.9
2022-10-25T11:58:13.946Z,24.92
2022-10-25T12:00:18.373Z,24.93
2022-10-25T12:02:22.966Z,24.93
2022-10-25T12:04:28.651Z,24.95
2022-10-25T12:06:39.679Z,24.95
2022-10-25T12:08:44.057Z,24.96
2022-10-25T12:10:48.416Z,24.96
2022-10-25T12:12:52.815Z,24.96
2022-10-25T12:14:57.255Z,24.96
2022-10-25T12:17:01.715Z,24.95
2022-10-25T12:19:06.091Z,24.95
2022-10-25T12:21:10.453Z,24.95
2022-10-25T12:23:14.801Z,24.94
2022-10-25T12:25:19.210Z,24.93
2022-10-25T12:27:23.541Z,24.93
2022-10-25T12:29:27.919Z,24.93
2022-10-25T12:31:32.306Z,24.94
2022-10-25T12:33:36.671Z,24.95
2022-10-25T12:35:41.009Z,24.96
2022-10-25T12:37:46.161Z,24.98
2022-10-25T12:40:00.557Z,24.98
2022-10-25T12:42:04.916Z,25
2022-10-25T12:44:09.271Z,25
2022-10-25T12:46:13.648Z,24.99
2022-10-25T12:48:18.011Z,24.99
2022-10-25T12:50:22.427Z,24.98
2022-10-25T12:52:26.781Z,24.97
2022-10-25T12:54:32.330Z,24.95
2022-10-25T12:56:36.728Z,24.93
2022-10-25T12:58:41.076Z,24.92
2022-10-25T13:00:45.428Z,24.91
2022-10-25T13:02:50.063Z,24.9
2022-10-25T13:04:54.658Z,24.89
2022-10-25T13:06:59.082Z,24.88
2022-10-25T13:09:03.440Z,24.88
2022-10-25T13:11:07.808Z,24.87
2022-10-25T13:13:12.227Z,24.87
2022-10-25T13:15:16.590Z,24.86
2022-10-25T13:17:20.991Z,24.86
2022-10-25T13:19:42.649Z,24.85
2022-10-25T13:21:59.052Z,24.83
2022-10-25T13:24:03.440Z,24.85
2022-10-25T13:26:07.818Z,24.83
2022-10-25T13:28:12.272Z,24.83
2022-10-25T13:32:22.073Z,24.82
2022-10-25T13:34:26.446Z,24.82
2022-10-25T13:36:30.802Z,24.82
2022-10-25T13:38:38.980Z,24.82
2022-10-25T13:40:43.692Z,24.82
2022-10-25T13:42:48.198Z,24.82
2022-10-25T13:44:53.493Z,24.81
2022-10-25T13:46:57.838Z,24.82
2022-10-25T13:49:02.190Z,24.81
2022-10-25T13:51:06.563Z,24.83
2022-10-25T13:53:10.928Z,24.84
2022-10-25T13:55:15.308Z,24.85
2022-10-25T13:57:20.600Z,24.84
2022-10-25T13:59:24.995Z,24.84
2022-10-25T14:01:29.529Z,24.82
2022-10-25T14:03:34.347Z,24.8
2022-10-25T14:05:38.681Z,24.76
2022-10-25T14:07:43.044Z,24.74
2022-10-25T14:09:47.460Z,24.73
2022-10-25T14:11:52.629Z,24.71
2022-10-25T14:13:57.242Z,24.69
2022-10-25T14:16:01.633Z,24.67
2022-10-25T14:18:05.972Z,24.65
2022-10-25T14:20:10.405Z,24.63
2022-10-25T14:22:15.882Z,24.61
2022-10-25T14:24:20.287Z,24.6
2022-10-25T14:26:24.654Z,24.59
2022-10-25T14:28:29.042Z,24.58
2022-10-25T14:30:33.408Z,24.59
2022-10-25T14:32:37.765Z,24.6
2022-10-25T14:34:42.202Z,24.61
2022-10-25T14:36:46.557Z,24.61
2022-10-25T14:38:50.882Z,24.6
2022-10-25T14:40:55.259Z,24.62
2022-10-25T14:42:59.659Z,24.63
2022-10-25T14:47:53.138Z,24.67
2022-10-25T14:49:57.509Z,24.68
2022-10-25T14:52:02.062Z,24.68
2022-10-25T14:54:06.450Z,24.7
2022-10-25T14:56:10.862Z,24.71
2022-10-25T14:58:15.306Z,24.72
2022-10-25T15:00:19.702Z,24.72
2022-10-25T15:02:24.236Z,24.73
2022-10-25T15:04:28.635Z,24.73
2022-10-25T15:06:32.998Z,24.75
2022-10-25T15:08:37.363Z,24.75
2022-10-25T15:10:41.734Z,24.75
2022-10-25T15:12:46.333Z,24.76
2022-10-25T15:14:51.709Z,24.76
2022-10-25T15:16:56.172Z,24.78
2022-10-25T15:19:00.691Z,24.78
2022-10-25T15:21:05.127Z,24.79
2022-10-25T15:23:09.486Z,24.8
2022-10-25T15:25:13.862Z,24.79
2022-10-25T15:27:18.792Z,24.8
2022-10-25T15:29:23.130Z,24.8
2022-10-25T15:31:27.594Z,24.79
2022-10-25T15:33:31.957Z,24.78
2022-10-25T15:35:36.383Z,24.77
2022-10-25T15:37:40.760Z,24.75
2022-10-25T15:39:45.286Z,24.74
2022-10-25T15:41:49.682Z,24.73
2022-10-25T15:43:54.024Z,24.74
2022-10-25T15:45:58.470Z,24.74
2022-10-25T15:48:02.851Z,24.75
2022-10-25T15:50:07.191Z,24.75
2022-10-25T15:52:11.549Z,24.75
2022-10-25T15:54:16.354Z,24.78
2022-10-25T15:56:20.854Z,24.79
2022-10-25T15:58:25.203Z,24.81
2022-10-25T16:00:31.994Z,24.82
2022-10-25T16:02:36.589Z,24.82
2022-10-25T16:04:41.048Z,24.83
2022-10-25T16:06:45.446Z,24.85
2022-10-25T16:08:49.943Z,24.84
2022-10-25T16:10:54.328Z,24.84
2022-10-25T16:12:59.488Z,24.83
2022-10-25T16:15:04.113Z,24.84
2022-10-25T16:17:08.478Z,24.82
2022-10-25T16:19:12.843Z,24.82
2022-10-25T16:21:17.217Z,24.82
2022-10-25T16:23:21.587Z,24.82
2022-10-25T16:25:29.064Z,24.82
2022-10-25T16:27:36.877Z,24.81
2022-10-25T16:29:41.258Z,24.81
2022-10-25T16:31:45.644Z,24.81
2022-10-25T16:33:50.012Z,24.8
2022-10-25T16:35:54.424Z,24.79
2022-10-25T16:37:58.864Z,24.79
2022-10-25T16:40:03.439Z,24.79
2022-10-25T16:42:07.767Z,24.79
2022-10-25T16:44:12.089Z,24.78
2022-10-25T16:46:16.476Z,24.78
2022-10-25T16:48:20.868Z,24.78
2022-10-25T16:50:25.260Z,24.75
2022-10-25T16:52:29.694Z,24.75
2022-10-25T16:54:34.191Z,24.74
2022-10-25T16:56:38.527Z,24.73
2022-10-25T16:58:42.860Z,24.71
2022-10-25T17:00:47.344Z,24.67
2022-10-25T17:02:51.997Z,24.65
2022-10-25T17:04:56.378Z,24.66
2022-10-25T17:07:00.764Z,24.67
2022-10-25T17:09:05.154Z,24.7
2022-10-25T17:11:09.582Z,24.65
2022-10-25T17:13:13.998Z,24.56
2022-10-25T17:15:18.372Z,24.43
2022-10-25T17:19:27.398Z,24.18
2022-10-25T17:21:31.768Z,24.05
2022-10-25T17:23:36.158Z,23.96
2022-10-25T17:25:40.556Z,23.88
2022-10-25T17:27:45.166Z,23.79
2022-10-25T17:29:50.814Z,23.72
2022-10-25T17:31:55.372Z,23.68
2022-10-25T17:33:59.690Z,23.63
2022-10-25T17:36:04.087Z,23.58
2022-10-25T17:38:08.517Z,23.55
2022-10-25T17:40:12.866Z,23.5
2022-10-25T17:42:17.262Z,23.47
2022-10-25T17:44:21.702Z,23.45
2022-10-25T17:46:26.074Z,23.44
2022-10-25T17:48:30.432Z,23.43
2022-10-25T17:50:36.025Z,23.41
2022-10-25T17:52:40.369Z,23.45
2022-10-25T17:54:44.887Z,23.55
2022-10-25T17:56:49.389Z,23.66
2022-10-25T17:58:53.784Z,23.75
2022-10-25T18:00:58.191Z,23.82
2022-10-25T18:03:02.811Z,23.81
2022-10-25T18:05:22.585Z,23.74
2022-10-25T18:07:27.956Z,23.62
2022-10-25T18:09:38.321Z,23.53
2022-10-25T18:11:42.729Z,23.44
2022-10-25T18:13:47.142Z,23.35
2022-10-25T18:15:51.497Z,23.28
2022-10-25T18:17:55.981Z,23.23
2022-10-25T18:20:00.364Z,23.18
2022-10-25T18:22:04.771Z,23.12
2022-10-25T18:24:09.136Z,23.07
2022-10-25T18:26:13.497Z,23.03
2022-10-25T18:28:17.899Z,22.99
2022-10-25T18:30:22.309Z,22.96
2022-10-25T18:32:26.689Z,22.93
2022-10-25T18:34:38.800Z,22.89
2022-10-25T18:36:43.174Z,22.85
2022-10-25T18:38:47.536Z,22.79
2022-10-25T18:40:51.909Z,22.75
2022-10-25T18:42:56.317Z,22.71
2022-10-25T18:45:00.688Z,22.67
2022-10-25T18:47:05.074Z,22.62
2022-10-25T18:49:09.485Z,22.57
2022-10-25T18:51:13.852Z,22.53
2022-10-25T18:53:18.241Z,22.51
2022-10-25T18:55:22.658Z,22.45
2022-10-25T18:57:27.082Z,22.4
2022-10-25T18:59:31.451Z,22.35
2022-10-25T19:01:35.924Z,22.31
2022-10-25T19:03:40.674Z,22.28
2022-10-25T19:05:45.066Z,22.26
2022-10-25T19:07:49.747Z,22.31
2022-10-25T19:09:54.688Z,22.39
2022-10-25T19:11:59.047Z,22.49
2022-10-25T19:14:06.436Z,22.61
2022-10-25T19:16:10.789Z,22.7
2022-10-25T19:18:15.202Z,22.79
2022-10-25T19:20:19.659Z,22.88
2022-10-25T19:22:25.221Z,22.96
2022-10-25T19:24:29.645Z,23.02
2022-10-25T19:26:34.123Z,23.08
2022-10-25T19:28:38.550Z,23.14
2022-10-25T19:30:42.903Z,23.18
2022-10-25T19:32:47.655Z,23.21
2022-10-25T19:34:52.078Z,23.25
2022-10-25T19:36:56.580Z,23.29
2022-10-25T19:39:01.015Z,23.33
2022-10-25T19:41:05.414Z,23.37
2022-10-25T19:43:09.842Z,23.41
2022-10-25T19:45:14.244Z,23.44
2022-10-25T19:47:18.691Z,23.45
2022-10-25T19:49:23.035Z,23.48
2022-10-25T19:51:29.784Z,23.49
2022-10-25T19:53:34.212Z,23.52
2022-10-25T19:55:38.575Z,23.54
2022-10-25T19:57:44.962Z,23.55
2022-10-25T19:59:51.679Z,23.56
2022-10-25T20:01:56.293Z,23.56
2022-10-25T20:04:01.237Z,23.56
2022-10-25T20:06:05.664Z,23.56
2022-10-25T20:08:10.043Z,23.57
2022-10-25T20:10:14.427Z,23.55
2022-10-25T20:12:18.854Z,23.55
2022-10-25T20:14:23.258Z,23.54
2022-10-25T20:16:27.661Z,23.54
2022-10-25T20:18:32.086Z,23.53
2022-10-25T20:20:36.467Z,23.52
2022-10-25T20:22:43.871Z,23.51
2022-10-25T20:24:48.275Z,23.51
2022-10-25T20:26:52.683Z,23.5
2022-10-25T20:28:57.058Z,23.49
2022-10-25T20:31:03.311Z,23.51
2022-10-25T20:33:07.698Z,23.51
2022-10-25T20:35:12.096Z,23.52
2022-10-25T20:37:16.441Z,23.53
2022-10-25T20:39:20.924Z,23.53
2022-10-25T20:41:25.284Z,23.54
2022-10-25T20:43:29.619Z,23.55
2022-10-25T20:45:34.002Z,23.55
2022-10-25T20:47:38.421Z,23.54
2022-10-25T20:49:42.811Z,23.55
2022-10-25T20:51:47.171Z,23.54
2022-10-25T20:53:51.567Z,23.54
2022-10-25T20:55:55.997Z,23.53
2022-10-25T20:58:00.372Z,23.53
2022-10-25T21:00:04.762Z,23.52
2022-10-25T21:02:10.321Z,23.52
2022-10-25T21:04:21.909Z,23.51
2022-10-25T21:07:05.105Z,23.51
2022-10-25T21:09:09.503Z,23.52
2022-10-25T21:11:13.906Z,23.52
2022-10-25T21:13:18.291Z,23.5
2022-10-25T21:15:22.655Z,23.49
2022-10-25T21:17:27.034Z,23.49
2022-10-25T21:19:33.235Z,23.49
2022-10-25T21:21:37.618Z,23.48
2022-10-25T21:23:42.037Z,23.48
2022-10-25T21:25:46.453Z,23.46
2022-10-25T21:27:51.160Z,23.46
2022-10-25T21:29:56.213Z,23.46
2022-10-25T21:32:00.579Z,23.46
2022-10-25T21:34:05.005Z,23.45
2022-10-25T21:36:09.834Z,23.45
2022-10-25T21:38:14.170Z,23.45
2022-10-25T21:40:18.541Z,23.44
2022-10-25T21:42:22.923Z,23.45
2022-10-25T21:44:27.263Z,23.45
2022-10-25T21:46:31.617Z,23.46
2022-10-25T21:48:36.051Z,23.45
2022-10-25T21:50:40.391Z,23.46
2022-10-25T21:52:44.771Z,23.45
2022-10-25T21:54:49.138Z,23.45
2022-10-25T21:56:53.515Z,23.46
2022-10-25T21:58:57.928Z,23.45
2022-10-25T22:01:02.316Z,23.45
2022-10-25T22:03:07.349Z,23.44
2022-10-25T22:05:11.826Z,23.44
2022-10-25T22:07:16.152Z,23.43
2022-10-25T22:09:20.523Z,23.43
2022-10-25T22:11:24.873Z,23.43
2022-10-25T22:13:29.272Z,23.43
2022-10-25T22:15:33.604Z,23.42
2022-10-25T22:17:37.949Z,23.41
2022-10-25T22:19:42.445Z,23.41
2022-10-25T22:21:46.855Z,23.4
2022-10-25T22:23:51.369Z,23.39
2022-10-25T22:25:55.729Z,23.38
2022-10-25T22:28:00.108Z,23.37
2022-10-25T22:30:04.718Z,23.37
2022-10-25T22:32:09.090Z,23.36
2022-10-25T22:34:13.422Z,23.35
2022-10-25T22:36:17.764Z,23.35
2022-10-25T22:38:22.170Z,23.34
2022-10-25T22:40:26.576Z,23.34
2022-10-25T22:42:30.945Z,23.33
2022-10-25T22:44:35.315Z,23.32
2022-10-25T22:46:39.677Z,23.32
2022-10-25T22:48:44.106Z,23.31
2022-10-25T22:50:48.464Z,23.3
2022-10-25T22:52:52.820Z,23.28
2022-10-25T22:54:57.192Z,23.28
2022-10-25T22:57:01.546Z,23.25
2022-10-25T22:59:05.897Z,23.24
2022-10-25T23:01:10.229Z,23.24
2022-10-25T23:03:14.587Z,23.22
2022-10-25T23:05:18.998Z,23.21
2022-10-25T23:07:23.350Z,23.2
2022-10-25T23:11:32.224Z,23.18
2022-10-25T23:13:36.578Z,23.18
2022-10-25T23:15:40.941Z,23.17
2022-10-25T23:19:49.656Z,23.15
2022-10-25T23:21:53.994Z,23.14
2022-10-25T23:23:58.369Z,23.13
2022-10-25T23:26:02.809Z,23.12
2022-10-25T23:28:07.344Z,23.11
2022-10-25T23:30:12.525Z,23.11
2022-10-25T23:32:17.656Z,23.1
2022-10-25T23:36:27.448Z,23.09
2022-10-25T23:38:31.766Z,23.1
2022-10-25T23:40:36.136Z,23.09
2022-10-25T23:42:40.502Z,23.08
2022-10-25T23:44:45.170Z,23.09
2022-10-25T23:46:49.548Z,23.08
2022-10-25T23:48:53.913Z,23.06
2022-10-25T23:50:58.457Z,23.06
2022-10-25T23:53:06.179Z,23.05
2022-10-25T23:55:10.547Z,23.04
2022-10-25T23:57:14.904Z,23.04
2022-10-25T23:59:19.295Z,23.04
